sensor_id;sensor_type;location;lat;lon;timestamp;temperature;humidity
25352;DHT22;13304;48.464;8.712;2022-09-09T00:04:21;18.70;69.00
25352;DHT22;13304;48.464;8.712;2022-09-09T00:06:59;18.70;68.70
25352;DHT22;13304;48.464;8.712;2022-09-09T00:09:29;18.70;68.60
25352;DHT22;13304;48.464;8.712;2022-09-09T00:23:14;18.70;68.10
25352;DHT22;13304;48.464;8.712;2022-09-09T00:28:22;18.70;68.40
25352;DHT22;13304;48.464;8.712;2022-09-09T00:30:48;18.70;68.50
25352;DHT22;13304;48.464;8.712;2022-09-09T00:33:24;18.70;68.50
25352;DHT22;13304;48.464;8.712;2022-09-09T00:35:56;18.70;68.30
25352;DHT22;13304;48.464;8.712;2022-09-09T00:38:27;18.70;68.30
25352;DHT22;13304;48.464;8.712;2022-09-09T00:41:11;18.70;68.20
25352;DHT22;13304;48.464;8.712;2022-09-09T00:43:39;18.70;68.20
25352;DHT22;13304;48.464;8.712;2022-09-09T00:46:15;18.70;68.10
25352;DHT22;13304;48.464;8.712;2022-09-09T00:48:54;18.60;68.00
25352;DHT22;13304;48.464;8.712;2022-09-09T00:54:31;18.50;68.00
25352;DHT22;13304;48.464;8.712;2022-09-09T00:57:25;18.50;68.10
25352;DHT22;13304;48.464;8.712;2022-09-09T01:02:50;18.50;69.00
25352;DHT22;13304;48.464;8.712;2022-09-09T01:05:45;18.40;69.90
25352;DHT22;13304;48.464;8.712;2022-09-09T01:08:28;18.40;69.00
25352;DHT22;13304;48.464;8.712;2022-09-09T01:10:59;18.40;69.30
25352;DHT22;13304;48.464;8.712;2022-09-09T01:13:29;18.40;69.30
25352;DHT22;13304;48.464;8.712;2022-09-09T01:16:01;18.40;69.40
25352;DHT22;13304;48.464;8.712;2022-09-09T01:18:40;18.40;69.70
25352;DHT22;13304;48.464;8.712;2022-09-09T01:21:43;18.40;69.80
25352;DHT22;13304;48.464;8.712;2022-09-09T01:24:35;18.30;70.00
25352;DHT22;13304;48.464;8.712;2022-09-09T01:27:05;18.30;69.90
25352;DHT22;13304;48.464;8.712;2022-09-09T01:29:32;18.30;69.90
25352;DHT22;13304;48.464;8.712;2022-09-09T01:32:01;18.30;70.10
25352;DHT22;13304;48.464;8.712;2022-09-09T01:34:33;18.30;70.50
25352;DHT22;13304;48.464;8.712;2022-09-09T01:37:07;18.30;70.40
25352;DHT22;13304;48.464;8.712;2022-09-09T01:39:34;18.20;70.30
25352;DHT22;13304;48.464;8.712;2022-09-09T01:42:01;18.20;70.50
25352;DHT22;13304;48.464;8.712;2022-09-09T01:44:28;18.20;70.70
25352;DHT22;13304;48.464;8.712;2022-09-09T01:46:55;18.20;70.80
25352;DHT22;13304;48.464;8.712;2022-09-09T01:49:21;18.20;70.80
25352;DHT22;13304;48.464;8.712;2022-09-09T01:51:52;18.10;70.80
25352;DHT22;13304;48.464;8.712;2022-09-09T01:54:19;18.10;71.00
25352;DHT22;13304;48.464;8.712;2022-09-09T02:02:30;18.00;71.20
25352;DHT22;13304;48.464;8.712;2022-09-09T02:07:42;18.00;71.70
25352;DHT22;13304;48.464;8.712;2022-09-09T02:10:12;18.00;71.80
25352;DHT22;13304;48.464;8.712;2022-09-09T02:12:43;18.00;71.90
25352;DHT22;13304;48.464;8.712;2022-09-09T02:15:30;18.00;72.00
25352;DHT22;13304;48.464;8.712;2022-09-09T02:17:58;18.00;72.20
25352;DHT22;13304;48.464;8.712;2022-09-09T02:20:28;18.00;72.00
25352;DHT22;13304;48.464;8.712;2022-09-09T02:22:59;18.00;72.10
25352;DHT22;13304;48.464;8.712;2022-09-09T02:25:28;18.00;72.00
25352;DHT22;13304;48.464;8.712;2022-09-09T02:27:55;18.00;71.90
25352;DHT22;13304;48.464;8.712;2022-09-09T02:30:27;18.00;72.10
25352;DHT22;13304;48.464;8.712;2022-09-09T02:32:56;18.00;72.00
25352;DHT22;13304;48.464;8.712;2022-09-09T02:35:26;18.00;71.90
25352;DHT22;13304;48.464;8.712;2022-09-09T02:37:55;18.00;71.90
25352;DHT22;13304;48.464;8.712;2022-09-09T02:40:24;18.00;72.00
25352;DHT22;13304;48.464;8.712;2022-09-09T02:42:50;18.00;72.20
25352;DHT22;13304;48.464;8.712;2022-09-09T02:45:23;18.00;72.30
25352;DHT22;13304;48.464;8.712;2022-09-09T02:50:39;18.00;72.80
25352;DHT22;13304;48.464;8.712;2022-09-09T02:53:19;17.90;72.60
25352;DHT22;13304;48.464;8.712;2022-09-09T02:55:49;17.90;72.60
25352;DHT22;13304;48.464;8.712;2022-09-09T02:58:17;18.00;72.50
25352;DHT22;13304;48.464;8.712;2022-09-09T03:00:46;17.90;72.40
25352;DHT22;13304;48.464;8.712;2022-09-09T03:03:12;17.90;72.40
25352;DHT22;13304;48.464;8.712;2022-09-09T03:05:38;17.90;72.30
25352;DHT22;13304;48.464;8.712;2022-09-09T03:08:05;17.90;72.20
25352;DHT22;13304;48.464;8.712;2022-09-09T03:10:34;17.90;72.20
25352;DHT22;13304;48.464;8.712;2022-09-09T03:13:00;17.80;72.30
25352;DHT22;13304;48.464;8.712;2022-09-09T03:15:26;17.80;72.50
25352;DHT22;13304;48.464;8.712;2022-09-09T03:17:57;17.80;72.80
25352;DHT22;13304;48.464;8.712;2022-09-09T03:20:24;17.80;73.20
25352;DHT22;13304;48.464;8.712;2022-09-09T03:22:54;17.80;73.50
25352;DHT22;13304;48.464;8.712;2022-09-09T03:25:21;17.80;73.70
25352;DHT22;13304;48.464;8.712;2022-09-09T03:27:50;17.80;73.80
25352;DHT22;13304;48.464;8.712;2022-09-09T03:30:15;17.80;73.60
25352;DHT22;13304;48.464;8.712;2022-09-09T03:32:44;17.80;73.50
25352;DHT22;13304;48.464;8.712;2022-09-09T03:35:10;17.70;73.50
25352;DHT22;13304;48.464;8.712;2022-09-09T03:37:38;17.70;73.60
25352;DHT22;13304;48.464;8.712;2022-09-09T03:40:04;17.70;73.60
25352;DHT22;13304;48.464;8.712;2022-09-09T03:42:31;17.70;73.70
25352;DHT22;13304;48.464;8.712;2022-09-09T03:44:57;17.60;73.80
25352;DHT22;13304;48.464;8.712;2022-09-09T03:47:23;17.70;73.80
25352;DHT22;13304;48.464;8.712;2022-09-09T03:49:49;17.60;73.80
25352;DHT22;13304;48.464;8.712;2022-09-09T03:52:15;17.60;74.00
25352;DHT22;13304;48.464;8.712;2022-09-09T03:54:42;17.60;74.30
25352;DHT22;13304;48.464;8.712;2022-09-09T03:57:10;17.60;74.30
25352;DHT22;13304;48.464;8.712;2022-09-09T03:59:36;17.60;74.20
25352;DHT22;13304;48.464;8.712;2022-09-09T04:02:03;17.60;74.40
25352;DHT22;13304;48.464;8.712;2022-09-09T04:04:29;17.60;74.50
25352;DHT22;13304;48.464;8.712;2022-09-09T04:06:55;17.70;74.80
25352;DHT22;13304;48.464;8.712;2022-09-09T04:09:21;17.70;75.00
25352;DHT22;13304;48.464;8.712;2022-09-09T04:11:47;17.70;75.00
25352;DHT22;13304;48.464;8.712;2022-09-09T04:14:12;17.70;75.10
25352;DHT22;13304;48.464;8.712;2022-09-09T04:16:38;17.70;75.00
25352;DHT22;13304;48.464;8.712;2022-09-09T04:19:05;17.70;75.00
25352;DHT22;13304;48.464;8.712;2022-09-09T04:21:33;17.80;75.00
25352;DHT22;13304;48.464;8.712;2022-09-09T04:23:58;17.80;74.80
25352;DHT22;13304;48.464;8.712;2022-09-09T04:26:24;17.80;74.70
25352;DHT22;13304;48.464;8.712;2022-09-09T04:28:50;17.80;74.70
25352;DHT22;13304;48.464;8.712;2022-09-09T04:31:21;17.80;74.70
25352;DHT22;13304;48.464;8.712;2022-09-09T04:33:48;17.80;74.70
25352;DHT22;13304;48.464;8.712;2022-09-09T04:36:15;17.80;74.70
25352;DHT22;13304;48.464;8.712;2022-09-09T04:38:41;17.80;74.70
25352;DHT22;13304;48.464;8.712;2022-09-09T04:41:07;17.80;74.70
25352;DHT22;13304;48.464;8.712;2022-09-09T04:43:33;17.80;74.60
25352;DHT22;13304;48.464;8.712;2022-09-09T04:45:59;17.80;74.50
25352;DHT22;13304;48.464;8.712;2022-09-09T04:48:25;17.80;74.40
25352;DHT22;13304;48.464;8.712;2022-09-09T04:50:58;17.80;74.40
25352;DHT22;13304;48.464;8.712;2022-09-09T04:53:25;17.80;75.40
25352;DHT22;13304;48.464;8.712;2022-09-09T04:55:52;17.80;74.60
25352;DHT22;13304;48.464;8.712;2022-09-09T04:58:18;17.80;74.80
25352;DHT22;13304;48.464;8.712;2022-09-09T05:00:46;17.80;75.00
25352;DHT22;13304;48.464;8.712;2022-09-09T05:03:12;17.80;75.00
25352;DHT22;13304;48.464;8.712;2022-09-09T05:05:38;17.80;75.00
25352;DHT22;13304;48.464;8.712;2022-09-09T05:08:05;17.80;75.00
25352;DHT22;13304;48.464;8.712;2022-09-09T05:10:36;17.70;75.10
25352;DHT22;13304;48.464;8.712;2022-09-09T05:13:03;17.70;75.20
25352;DHT22;13304;48.464;8.712;2022-09-09T05:15:30;17.70;75.40
25352;DHT22;13304;48.464;8.712;2022-09-09T05:18:02;17.70;75.60
25352;DHT22;13304;48.464;8.712;2022-09-09T05:20:29;17.70;75.70
25352;DHT22;13304;48.464;8.712;2022-09-09T05:22:57;17.80;75.70
25352;DHT22;13304;48.464;8.712;2022-09-09T05:25:24;17.80;75.70
25352;DHT22;13304;48.464;8.712;2022-09-09T05:27:52;17.80;75.60
25352;DHT22;13304;48.464;8.712;2022-09-09T05:30:19;17.80;75.80
25352;DHT22;13304;48.464;8.712;2022-09-09T05:32:45;17.80;75.90
25352;DHT22;13304;48.464;8.712;2022-09-09T05:35:13;17.90;76.00
25352;DHT22;13304;48.464;8.712;2022-09-09T05:37:41;17.90;76.00
25352;DHT22;13304;48.464;8.712;2022-09-09T05:40:07;17.90;76.00
25352;DHT22;13304;48.464;8.712;2022-09-09T05:42:33;17.90;76.10
25352;DHT22;13304;48.464;8.712;2022-09-09T05:44:59;17.90;76.10
25352;DHT22;13304;48.464;8.712;2022-09-09T05:47:25;18.00;76.20
25352;DHT22;13304;48.464;8.712;2022-09-09T05:49:53;18.00;76.30
25352;DHT22;13304;48.464;8.712;2022-09-09T05:52:19;18.00;76.30
25352;DHT22;13304;48.464;8.712;2022-09-09T05:54:45;18.00;76.10
25352;DHT22;13304;48.464;8.712;2022-09-09T05:57:11;18.10;76.10
25352;DHT22;13304;48.464;8.712;2022-09-09T05:59:37;18.10;76.10
25352;DHT22;13304;48.464;8.712;2022-09-09T06:02:03;18.10;76.20
25352;DHT22;13304;48.464;8.712;2022-09-09T06:04:29;18.10;76.20
25352;DHT22;13304;48.464;8.712;2022-09-09T06:06:55;18.10;76.00
25352;DHT22;13304;48.464;8.712;2022-09-09T06:09:21;18.10;75.90
25352;DHT22;13304;48.464;8.712;2022-09-09T06:11:47;18.10;75.80
25352;DHT22;13304;48.464;8.712;2022-09-09T06:14:12;18.20;75.90
25352;DHT22;13304;48.464;8.712;2022-09-09T06:16:38;18.20;76.00
25352;DHT22;13304;48.464;8.712;2022-09-09T06:19:04;18.20;76.10
25352;DHT22;13304;48.464;8.712;2022-09-09T06:21:32;18.20;76.20
25352;DHT22;13304;48.464;8.712;2022-09-09T06:23:59;18.20;76.30
25352;DHT22;13304;48.464;8.712;2022-09-09T06:26:35;18.20;76.40
25352;DHT22;13304;48.464;8.712;2022-09-09T06:29:03;18.20;76.30
25352;DHT22;13304;48.464;8.712;2022-09-09T06:31:30;18.30;76.30
25352;DHT22;13304;48.464;8.712;2022-09-09T06:33:57;18.30;76.40
25352;DHT22;13304;48.464;8.712;2022-09-09T06:36:28;18.30;76.30
25352;DHT22;13304;48.464;8.712;2022-09-09T06:38:55;18.40;76.30
25352;DHT22;13304;48.464;8.712;2022-09-09T06:41:22;18.40;76.40
25352;DHT22;13304;48.464;8.712;2022-09-09T06:43:49;18.40;76.40
25352;DHT22;13304;48.464;8.712;2022-09-09T06:46:20;18.50;76.50
25352;DHT22;13304;48.464;8.712;2022-09-09T06:48:47;18.50;76.50
25352;DHT22;13304;48.464;8.712;2022-09-09T06:51:19;18.50;76.50
25352;DHT22;13304;48.464;8.712;2022-09-09T06:53:53;18.50;76.60
25352;DHT22;13304;48.464;8.712;2022-09-09T06:56:39;18.60;76.60
25352;DHT22;13304;48.464;8.712;2022-09-09T06:59:09;18.60;76.70
25352;DHT22;13304;48.464;8.712;2022-09-09T07:01:43;18.70;76.70
25352;DHT22;13304;48.464;8.712;2022-09-09T07:04:10;18.70;76.50
25352;DHT22;13304;48.464;8.712;2022-09-09T07:06:39;18.70;76.50
25352;DHT22;13304;48.464;8.712;2022-09-09T07:09:07;18.80;76.80
25352;DHT22;13304;48.464;8.712;2022-09-09T07:11:48;18.80;76.80
25352;DHT22;13304;48.464;8.712;2022-09-09T07:14:14;18.80;76.60
25352;DHT22;13304;48.464;8.712;2022-09-09T07:16:44;18.90;76.50
25352;DHT22;13304;48.464;8.712;2022-09-09T07:19:11;18.90;76.40
25352;DHT22;13304;48.464;8.712;2022-09-09T07:21:37;18.90;76.40
25352;DHT22;13304;48.464;8.712;2022-09-09T07:24:03;19.00;76.50
25352;DHT22;13304;48.464;8.712;2022-09-09T07:26:33;19.00;76.50
25352;DHT22;13304;48.464;8.712;2022-09-09T07:28:59;19.00;76.60
25352;DHT22;13304;48.464;8.712;2022-09-09T07:31:35;19.10;76.70
25352;DHT22;13304;48.464;8.712;2022-09-09T07:34:02;19.10;76.70
25352;DHT22;13304;48.464;8.712;2022-09-09T07:36:30;19.10;76.50
25352;DHT22;13304;48.464;8.712;2022-09-09T07:38:58;19.20;76.30
25352;DHT22;13304;48.464;8.712;2022-09-09T07:41:28;19.20;76.30
25352;DHT22;13304;48.464;8.712;2022-09-09T07:43:54;19.20;76.30
25352;DHT22;13304;48.464;8.712;2022-09-09T07:46:22;19.10;76.20
25352;DHT22;13304;48.464;8.712;2022-09-09T07:48:55;19.20;76.00
25352;DHT22;13304;48.464;8.712;2022-09-09T07:51:26;19.30;76.10
25352;DHT22;13304;48.464;8.712;2022-09-09T07:53:54;19.30;76.20
25352;DHT22;13304;48.464;8.712;2022-09-09T07:56:20;19.30;76.10
25352;DHT22;13304;48.464;8.712;2022-09-09T07:58:50;19.30;76.40
25352;DHT22;13304;48.464;8.712;2022-09-09T08:01:20;19.40;76.50
25352;DHT22;13304;48.464;8.712;2022-09-09T08:03:57;19.40;76.50
25352;DHT22;13304;48.464;8.712;2022-09-09T08:06:32;19.40;76.70
25352;DHT22;13304;48.464;8.712;2022-09-09T08:09:01;19.50;76.60
25352;DHT22;13304;48.464;8.712;2022-09-09T08:11:28;19.50;76.70
25352;DHT22;13304;48.464;8.712;2022-09-09T08:13:56;19.60;76.60
25352;DHT22;13304;48.464;8.712;2022-09-09T08:16:25;19.60;76.90
25352;DHT22;13304;48.464;8.712;2022-09-09T08:18:54;19.70;75.70
25352;DHT22;13304;48.464;8.712;2022-09-09T08:21:28;19.60;75.60
25352;DHT22;13304;48.464;8.712;2022-09-09T08:23:56;19.70;75.50
25352;DHT22;13304;48.464;8.712;2022-09-09T08:26:24;19.80;75.70
25352;DHT22;13304;48.464;8.712;2022-09-09T08:28:52;19.80;75.70
25352;DHT22;13304;48.464;8.712;2022-09-09T08:31:19;19.90;75.50
25352;DHT22;13304;48.464;8.712;2022-09-09T08:33:46;19.90;75.40
25352;DHT22;13304;48.464;8.712;2022-09-09T08:36:15;20.00;75.10
25352;DHT22;13304;48.464;8.712;2022-09-09T08:38:42;20.00;75.10
25352;DHT22;13304;48.464;8.712;2022-09-09T08:41:16;20.00;75.20
25352;DHT22;13304;48.464;8.712;2022-09-09T08:43:47;20.10;75.20
25352;DHT22;13304;48.464;8.712;2022-09-09T08:51:11;20.20;75.30
25352;DHT22;13304;48.464;8.712;2022-09-09T08:53:48;20.30;75.20
25352;DHT22;13304;48.464;8.712;2022-09-09T08:56:20;20.30;74.20
25352;DHT22;13304;48.464;8.712;2022-09-09T08:58:52;20.30;74.60
25352;DHT22;13304;48.464;8.712;2022-09-09T09:10:46;20.60;73.80
25352;DHT22;13304;48.464;8.712;2022-09-09T09:13:22;20.70;73.80
25352;DHT22;13304;48.464;8.712;2022-09-09T09:16:06;20.70;73.50
25352;DHT22;13304;48.464;8.712;2022-09-09T09:18:35;20.90;73.20
25352;DHT22;13304;48.464;8.712;2022-09-09T09:21:16;21.00;73.10
25352;DHT22;13304;48.464;8.712;2022-09-09T09:23:59;21.10;71.30
25352;DHT22;13304;48.464;8.712;2022-09-09T09:26:35;21.20;70.80
25352;DHT22;13304;48.464;8.712;2022-09-09T09:29:16;21.30;70.70
25352;DHT22;13304;48.464;8.712;2022-09-09T09:31:51;21.40;69.90
25352;DHT22;13304;48.464;8.712;2022-09-09T09:34:18;21.50;69.10
25352;DHT22;13304;48.464;8.712;2022-09-09T09:36:59;21.60;68.20
25352;DHT22;13304;48.464;8.712;2022-09-09T09:39:31;21.60;67.20
25352;DHT22;13304;48.464;8.712;2022-09-09T09:42:10;21.70;67.20
25352;DHT22;13304;48.464;8.712;2022-09-09T09:44:40;21.70;65.10
25352;DHT22;13304;48.464;8.712;2022-09-09T09:47:18;21.80;63.90
25352;DHT22;13304;48.464;8.712;2022-09-09T09:52:23;21.80;58.00
25352;DHT22;13304;48.464;8.712;2022-09-09T09:54:50;21.80;59.10
25352;DHT22;13304;48.464;8.712;2022-09-09T09:57:17;21.80;58.60
25352;DHT22;13304;48.464;8.712;2022-09-09T09:59:43;21.90;57.20
25352;DHT22;13304;48.464;8.712;2022-09-09T10:02:16;21.80;56.30
25352;DHT22;13304;48.464;8.712;2022-09-09T10:04:43;21.80;56.00
25352;DHT22;13304;48.464;8.712;2022-09-09T10:07:19;21.80;56.40
25352;DHT22;13304;48.464;8.712;2022-09-09T10:09:45;21.80;57.00
25352;DHT22;13304;48.464;8.712;2022-09-09T10:19:50;21.80;56.20
25352;DHT22;13304;48.464;8.712;2022-09-09T10:22:28;21.70;54.50
25352;DHT22;13304;48.464;8.712;2022-09-09T10:25:35;21.70;55.30
25352;DHT22;13304;48.464;8.712;2022-09-09T10:28:45;21.80;54.20
25352;DHT22;13304;48.464;8.712;2022-09-09T10:40:34;22.00;53.50
25352;DHT22;13304;48.464;8.712;2022-09-09T10:49:09;22.10;53.10
25352;DHT22;13304;48.464;8.712;2022-09-09T10:51:50;22.00;54.60
25352;DHT22;13304;48.464;8.712;2022-09-09T10:55:23;21.80;55.00
25352;DHT22;13304;48.464;8.712;2022-09-09T11:00:19;21.50;56.60
25352;DHT22;13304;48.464;8.712;2022-09-09T11:03:08;21.40;57.60
25352;DHT22;13304;48.464;8.712;2022-09-09T11:05:43;21.30;58.20
25352;DHT22;13304;48.464;8.712;2022-09-09T11:16:52;20.90;59.00
25352;DHT22;13304;48.464;8.712;2022-09-09T11:21:53;21.00;59.10
25352;DHT22;13304;48.464;8.712;2022-09-09T11:40:41;21.30;59.60
25352;DHT22;13304;48.464;8.712;2022-09-09T11:43:30;21.40;59.90
25352;DHT22;13304;48.464;8.712;2022-09-09T11:45:59;21.40;59.60
25352;DHT22;13304;48.464;8.712;2022-09-09T11:48:40;21.40;59.30
25352;DHT22;13304;48.464;8.712;2022-09-09T11:56:48;21.30;59.10
25352;DHT22;13304;48.464;8.712;2022-09-09T11:59:20;21.40;59.40
25352;DHT22;13304;48.464;8.712;2022-09-09T12:09:55;21.50;58.40
25352;DHT22;13304;48.464;8.712;2022-09-09T12:12:27;21.40;58.50
25352;DHT22;13304;48.464;8.712;2022-09-09T12:17:27;21.40;59.00
25352;DHT22;13304;48.464;8.712;2022-09-09T12:22:45;21.40;59.50
25352;DHT22;13304;48.464;8.712;2022-09-09T12:25:33;21.40;59.70
25352;DHT22;13304;48.464;8.712;2022-09-09T12:28:25;21.40;59.80
25352;DHT22;13304;48.464;8.712;2022-09-09T12:31:17;21.40;60.60
25352;DHT22;13304;48.464;8.712;2022-09-09T12:33:47;21.40;59.50
25352;DHT22;13304;48.464;8.712;2022-09-09T12:36:24;21.50;59.90
25352;DHT22;13304;48.464;8.712;2022-09-09T12:38:53;21.40;59.20
25352;DHT22;13304;48.464;8.712;2022-09-09T12:41:24;21.40;59.20
25352;DHT22;13304;48.464;8.712;2022-09-09T12:43:51;21.40;59.10
25352;DHT22;13304;48.464;8.712;2022-09-09T12:46:40;21.40;59.20
25352;DHT22;13304;48.464;8.712;2022-09-09T12:49:28;21.40;58.40
25352;DHT22;13304;48.464;8.712;2022-09-09T12:51:55;21.40;58.60
25352;DHT22;13304;48.464;8.712;2022-09-09T12:54:23;21.40;59.30
25352;DHT22;13304;48.464;8.712;2022-09-09T12:56:49;21.40;58.80
25352;DHT22;13304;48.464;8.712;2022-09-09T12:59:36;21.40;59.10
25352;DHT22;13304;48.464;8.712;2022-09-09T13:02:10;21.40;59.30
25352;DHT22;13304;48.464;8.712;2022-09-09T13:04:37;21.50;58.30
25352;DHT22;13304;48.464;8.712;2022-09-09T13:07:09;21.50;57.90
25352;DHT22;13304;48.464;8.712;2022-09-09T13:09:35;21.50;57.60
25352;DHT22;13304;48.464;8.712;2022-09-09T13:12:02;21.60;57.70
25352;DHT22;13304;48.464;8.712;2022-09-09T13:14:35;21.60;57.40
25352;DHT22;13304;48.464;8.712;2022-09-09T13:17:04;21.60;57.60
25352;DHT22;13304;48.464;8.712;2022-09-09T13:19:35;21.70;57.80
25352;DHT22;13304;48.464;8.712;2022-09-09T13:22:31;21.70;58.30
25352;DHT22;13304;48.464;8.712;2022-09-09T13:27:39;21.70;57.80
25352;DHT22;13304;48.464;8.712;2022-09-09T13:30:26;21.70;56.10
25352;DHT22;13304;48.464;8.712;2022-09-09T13:38:17;21.70;57.40
25352;DHT22;13304;48.464;8.712;2022-09-09T13:41:02;21.80;57.00
25352;DHT22;13304;48.464;8.712;2022-09-09T13:43:31;21.80;57.90
25352;DHT22;13304;48.464;8.712;2022-09-09T13:46:02;21.90;57.10
25352;DHT22;13304;48.464;8.712;2022-09-09T13:48:28;22.00;56.70
25352;DHT22;13304;48.464;8.712;2022-09-09T13:51:04;21.90;54.60
25352;DHT22;13304;48.464;8.712;2022-09-09T13:53:31;22.00;54.40
25352;DHT22;13304;48.464;8.712;2022-09-09T13:55:57;22.10;54.00
25352;DHT22;13304;48.464;8.712;2022-09-09T13:58:24;22.20;54.30
25352;DHT22;13304;48.464;8.712;2022-09-09T14:00:51;22.20;53.80
25352;DHT22;13304;48.464;8.712;2022-09-09T14:03:18;22.20;54.00
25352;DHT22;13304;48.464;8.712;2022-09-09T14:05:47;22.30;53.90
25352;DHT22;13304;48.464;8.712;2022-09-09T14:08:20;22.30;54.00
25352;DHT22;13304;48.464;8.712;2022-09-09T14:10:50;22.30;52.90
25352;DHT22;13304;48.464;8.712;2022-09-09T14:13:16;22.30;53.40
25352;DHT22;13304;48.464;8.712;2022-09-09T14:15:41;22.40;53.90
25352;DHT22;13304;48.464;8.712;2022-09-09T14:18:11;22.40;53.50
25352;DHT22;13304;48.464;8.712;2022-09-09T14:20:39;22.40;52.70
25352;DHT22;13304;48.464;8.712;2022-09-09T14:23:05;22.50;53.50
25352;DHT22;13304;48.464;8.712;2022-09-09T14:25:32;22.50;54.00
25352;DHT22;13304;48.464;8.712;2022-09-09T14:27:58;22.50;52.80
25352;DHT22;13304;48.464;8.712;2022-09-09T14:30:24;22.50;51.70
25352;DHT22;13304;48.464;8.712;2022-09-09T14:32:50;22.50;51.80
25352;DHT22;13304;48.464;8.712;2022-09-09T14:35:16;22.50;51.60
25352;DHT22;13304;48.464;8.712;2022-09-09T14:37:43;22.60;51.60
25352;DHT22;13304;48.464;8.712;2022-09-09T14:40:10;22.60;50.90
25352;DHT22;13304;48.464;8.712;2022-09-09T14:42:36;22.50;51.20
25352;DHT22;13304;48.464;8.712;2022-09-09T14:45:02;22.60;51.80
25352;DHT22;13304;48.464;8.712;2022-09-09T14:47:28;22.50;51.30
25352;DHT22;13304;48.464;8.712;2022-09-09T14:49:55;22.60;51.30
25352;DHT22;13304;48.464;8.712;2022-09-09T14:52:21;22.50;50.10
25352;DHT22;13304;48.464;8.712;2022-09-09T14:54:47;22.50;50.00
25352;DHT22;13304;48.464;8.712;2022-09-09T14:57:13;22.40;50.80
25352;DHT22;13304;48.464;8.712;2022-09-09T14:59:38;22.40;51.60
25352;DHT22;13304;48.464;8.712;2022-09-09T15:02:04;22.30;51.30
25352;DHT22;13304;48.464;8.712;2022-09-09T15:04:30;22.30;50.90
25352;DHT22;13304;48.464;8.712;2022-09-09T15:06:56;22.30;51.60
25352;DHT22;13304;48.464;8.712;2022-09-09T15:09:21;22.30;51.40
25352;DHT22;13304;48.464;8.712;2022-09-09T15:11:48;22.30;51.30
25352;DHT22;13304;48.464;8.712;2022-09-09T15:14:14;22.30;51.50
25352;DHT22;13304;48.464;8.712;2022-09-09T15:16:40;22.30;51.70
25352;DHT22;13304;48.464;8.712;2022-09-09T15:19:05;22.30;52.30
25352;DHT22;13304;48.464;8.712;2022-09-09T15:21:36;22.30;53.40
25352;DHT22;13304;48.464;8.712;2022-09-09T15:24:02;22.30;53.00
25352;DHT22;13304;48.464;8.712;2022-09-09T15:26:28;22.40;53.20
25352;DHT22;13304;48.464;8.712;2022-09-09T15:28:55;22.40;53.00
25352;DHT22;13304;48.464;8.712;2022-09-09T15:31:29;22.40;53.20
25352;DHT22;13304;48.464;8.712;2022-09-09T15:33:58;22.40;53.10
25352;DHT22;13304;48.464;8.712;2022-09-09T15:38:58;22.50;52.20
25352;DHT22;13304;48.464;8.712;2022-09-09T15:41:25;22.40;52.10
25352;DHT22;13304;48.464;8.712;2022-09-09T15:43:52;22.50;52.70
25352;DHT22;13304;48.464;8.712;2022-09-09T15:48:57;22.40;51.80
25352;DHT22;13304;48.464;8.712;2022-09-09T15:51:24;22.50;51.70
25352;DHT22;13304;48.464;8.712;2022-09-09T15:53:56;22.60;52.40
25352;DHT22;13304;48.464;8.712;2022-09-09T15:56:22;22.60;51.10
25352;DHT22;13304;48.464;8.712;2022-09-09T15:58:48;22.60;51.60
25352;DHT22;13304;48.464;8.712;2022-09-09T16:01:14;22.60;51.30
25352;DHT22;13304;48.464;8.712;2022-09-09T16:03:41;22.60;51.60
25352;DHT22;13304;48.464;8.712;2022-09-09T16:06:12;22.60;51.50
25352;DHT22;13304;48.464;8.712;2022-09-09T16:08:41;22.40;51.70
25352;DHT22;13304;48.464;8.712;2022-09-09T16:11:12;22.40;52.10
25352;DHT22;13304;48.464;8.712;2022-09-09T16:13:40;22.20;52.60
25352;DHT22;13304;48.464;8.712;2022-09-09T16:16:07;22.20;53.30
25352;DHT22;13304;48.464;8.712;2022-09-09T16:18:42;22.10;53.30
25352;DHT22;13304;48.464;8.712;2022-09-09T16:21:13;22.00;53.90
25352;DHT22;13304;48.464;8.712;2022-09-09T16:23:39;21.90;54.30
25352;DHT22;13304;48.464;8.712;2022-09-09T16:26:05;21.90;54.70
25352;DHT22;13304;48.464;8.712;2022-09-09T16:28:31;21.90;55.10
25352;DHT22;13304;48.464;8.712;2022-09-09T16:30:57;21.80;55.30
25352;DHT22;13304;48.464;8.712;2022-09-09T16:33:24;21.80;55.70
25352;DHT22;13304;48.464;8.712;2022-09-09T16:35:51;21.70;55.90
25352;DHT22;13304;48.464;8.712;2022-09-09T16:38:17;21.70;56.00
25352;DHT22;13304;48.464;8.712;2022-09-09T16:40:43;21.70;56.30
25352;DHT22;13304;48.464;8.712;2022-09-09T16:43:10;21.60;56.50
25352;DHT22;13304;48.464;8.712;2022-09-09T16:45:44;21.60;56.70
25352;DHT22;13304;48.464;8.712;2022-09-09T16:48:11;21.60;57.00
25352;DHT22;13304;48.464;8.712;2022-09-09T16:50:37;21.60;57.00
25352;DHT22;13304;48.464;8.712;2022-09-09T16:53:06;21.60;57.00
25352;DHT22;13304;48.464;8.712;2022-09-09T16:55:38;21.60;57.00
25352;DHT22;13304;48.464;8.712;2022-09-09T16:58:04;21.60;57.10
25352;DHT22;13304;48.464;8.712;2022-09-09T17:00:30;21.60;57.00
25352;DHT22;13304;48.464;8.712;2022-09-09T17:02:56;21.60;57.10
25352;DHT22;13304;48.464;8.712;2022-09-09T17:05:21;21.60;56.90
25352;DHT22;13304;48.464;8.712;2022-09-09T17:07:48;21.60;56.70
25352;DHT22;13304;48.464;8.712;2022-09-09T17:10:14;21.60;56.90
25352;DHT22;13304;48.464;8.712;2022-09-09T17:12:40;21.50;57.20
25352;DHT22;13304;48.464;8.712;2022-09-09T17:15:07;21.50;57.10
25352;DHT22;13304;48.464;8.712;2022-09-09T17:17:32;21.50;57.00
25352;DHT22;13304;48.464;8.712;2022-09-09T17:19:59;21.50;56.70
25352;DHT22;13304;48.464;8.712;2022-09-09T17:22:25;21.40;56.70
25352;DHT22;13304;48.464;8.712;2022-09-09T17:24:52;21.40;56.90
25352;DHT22;13304;48.464;8.712;2022-09-09T17:27:17;21.30;57.00
25352;DHT22;13304;48.464;8.712;2022-09-09T17:29:43;21.30;56.70
25352;DHT22;13304;48.464;8.712;2022-09-09T17:32:09;21.30;56.80
25352;DHT22;13304;48.464;8.712;2022-09-09T17:34:35;21.20;56.80
25352;DHT22;13304;48.464;8.712;2022-09-09T17:37:00;21.20;56.80
25352;DHT22;13304;48.464;8.712;2022-09-09T17:39:27;21.20;56.90
25352;DHT22;13304;48.464;8.712;2022-09-09T17:41:52;21.10;56.80
25352;DHT22;13304;48.464;8.712;2022-09-09T17:44:20;21.10;56.90
25352;DHT22;13304;48.464;8.712;2022-09-09T17:46:46;21.00;56.80
25352;DHT22;13304;48.464;8.712;2022-09-09T17:49:14;21.00;57.10
25352;DHT22;13304;48.464;8.712;2022-09-09T17:51:41;21.00;57.00
25352;DHT22;13304;48.464;8.712;2022-09-09T17:54:09;20.90;57.00
25352;DHT22;13304;48.464;8.712;2022-09-09T17:56:36;20.90;57.10
25352;DHT22;13304;48.464;8.712;2022-09-09T17:59:04;20.90;57.30
25352;DHT22;13304;48.464;8.712;2022-09-09T18:01:33;20.80;57.40
25352;DHT22;13304;48.464;8.712;2022-09-09T18:04:02;20.80;57.60